sensor_id;sensor_type;location;lat;lon;timestamp;P1;P2;P0
80289;PMS7003;69592;44.804;-0.550;2024-01-15T00:00:37;99.00;78.00;51.00
80289;PMS7003;69592;44.804;-0.550;2024-01-15T00:03:03;93.00;75.00;48.33
80289;PMS7003;69592;44.804;-0.550;2024-01-15T00:05:28;94.00;75.33;48.33
80289;PMS7003;69592;44.804;-0.550;2024-01-15T00:07:54;99.67;76.00;48.33
80289;PMS7003;69592;44.804;-0.550;2024-01-15T00:10:19;99.67;77.33;51.00
80289;PMS7003;69592;44.804;-0.550;2024-01-15T00:12:44;93.33;74.67;47.67
80289;PMS7003;69592;44.804;-0.550;2024-01-15T00:15:10;99.33;75.67;50.33
80289;PMS7003;69592;44.804;-0.550;2024-01-15T00:17:36;99.67;75.33;49.67
80289;PMS7003;69592;44.804;-0.550;2024-01-15T00:20:01;99.33;82.00;50.33
80289;PMS7003;69592;44.804;-0.550;2024-01-15T00:22:26;93.00;73.67;49.00
80289;PMS7003;69592;44.804;-0.550;2024-01-15T00:24:52;92.67;72.33;45.67
80289;PMS7003;69592;44.804;-0.550;2024-01-15T00:27:17;104.00;80.67;51.00
80289;PMS7003;69592;44.804;-0.550;2024-01-15T00:29:43;89.33;69.00;45.00
80289;PMS7003;69592;44.804;-0.550;2024-01-15T00:32:08;92.33;76.00;49.67
80289;PMS7003;69592;44.804;-0.550;2024-01-15T00:34:33;93.67;75.33;47.33
80289;PMS7003;69592;44.804;-0.550;2024-01-15T00:36:59;86.67;69.33;43.33
80289;PMS7003;69592;44.804;-0.550;2024-01-15T00:39:24;86.33;70.33;43.67
80289;PMS7003;69592;44.804;-0.550;2024-01-15T00:41:51;89.00;67.67;46.00
80289;PMS7003;69592;44.804;-0.550;2024-01-15T00:44:16;93.00;71.33;46.00
80289;PMS7003;69592;44.804;-0.550;2024-01-15T00:46:43;93.00;72.00;44.33
80289;PMS7003;69592;44.804;-0.550;2024-01-15T00:49:09;90.33;70.00;46.00
80289;PMS7003;69592;44.804;-0.550;2024-01-15T00:51:35;90.00;71.33;45.67
80289;PMS7003;69592;44.804;-0.550;2024-01-15T00:54:00;95.67;76.00;49.00
80289;PMS7003;69592;44.804;-0.550;2024-01-15T00:56:26;92.67;76.33;46.67
80289;PMS7003;69592;44.804;-0.550;2024-01-15T00:58:51;85.33;66.67;45.67
80289;PMS7003;69592;44.804;-0.550;2024-01-15T01:01:16;82.67;68.33;46.00
80289;PMS7003;69592;44.804;-0.550;2024-01-15T01:03:42;88.33;70.33;46.00
80289;PMS7003;69592;44.804;-0.550;2024-01-15T01:06:07;91.67;71.33;45.67
80289;PMS7003;69592;44.804;-0.550;2024-01-15T01:08:32;98.33;76.67;48.00
80289;PMS7003;69592;44.804;-0.550;2024-01-15T01:10:58;91.00;70.33;46.67
80289;PMS7003;69592;44.804;-0.550;2024-01-15T01:13:23;87.33;69.67;44.67
80289;PMS7003;69592;44.804;-0.550;2024-01-15T01:15:49;84.00;70.00;45.67
80289;PMS7003;69592;44.804;-0.550;2024-01-15T01:18:14;92.00;74.00;46.00
80289;PMS7003;69592;44.804;-0.550;2024-01-15T01:20:39;82.00;66.67;41.67
80289;PMS7003;69592;44.804;-0.550;2024-01-15T01:23:05;93.00;71.67;46.00
80289;PMS7003;69592;44.804;-0.550;2024-01-15T01:25:31;82.67;67.67;44.33
80289;PMS7003;69592;44.804;-0.550;2024-01-15T01:27:57;89.67;69.00;46.00
80289;PMS7003;69592;44.804;-0.550;2024-01-15T01:30:22;89.67;70.00;46.00
80289;PMS7003;69592;44.804;-0.550;2024-01-15T01:32:47;93.00;72.00;48.00
80289;PMS7003;69592;44.804;-0.550;2024-01-15T01:35:13;89.00;69.67;46.00
80289;PMS7003;69592;44.804;-0.550;2024-01-15T01:37:39;90.67;70.33;46.00
80289;PMS7003;69592;44.804;-0.550;2024-01-15T01:40:05;94.00;72.00;46.00
80289;PMS7003;69592;44.804;-0.550;2024-01-15T01:42:31;64.00;50.67;27.33
80289;PMS7003;69592;44.804;-0.550;2024-01-15T01:44:56;101.67;77.00;50.00
80289;PMS7003;69592;44.804;-0.550;2024-01-15T01:47:21;88.00;69.67;46.33
80289;PMS7003;69592;44.804;-0.550;2024-01-15T01:49:47;78.00;64.00;43.33
80289;PMS7003;69592;44.804;-0.550;2024-01-15T01:52:12;94.67;74.00;48.67
80289;PMS7003;69592;44.804;-0.550;2024-01-15T01:54:38;89.67;71.33;45.33
80289;PMS7003;69592;44.804;-0.550;2024-01-15T01:57:05;83.00;66.33;44.00
80289;PMS7003;69592;44.804;-0.550;2024-01-15T01:59:31;92.33;72.67;48.33
80289;PMS7003;69592;44.804;-0.550;2024-01-15T02:01:59;93.33;73.67;47.67
80289;PMS7003;69592;44.804;-0.550;2024-01-15T02:04:26;92.33;72.67;48.33
80289;PMS7003;69592;44.804;-0.550;2024-01-15T02:06:51;85.33;69.00;44.33
80289;PMS7003;69592;44.804;-0.550;2024-01-15T02:09:17;91.00;74.00;47.00
80289;PMS7003;69592;44.804;-0.550;2024-01-15T02:11:43;92.67;74.33;46.33
80289;PMS7003;69592;44.804;-0.550;2024-01-15T02:14:09;91.67;71.67;45.67
80289;PMS7003;69592;44.804;-0.550;2024-01-15T02:16:35;88.00;70.33;46.00
80289;PMS7003;69592;44.804;-0.550;2024-01-15T02:19:00;87.33;68.67;45.67
80289;PMS7003;69592;44.804;-0.550;2024-01-15T02:21:26;90.67;70.00;46.00
80289;PMS7003;69592;44.804;-0.550;2024-01-15T02:23:53;86.67;68.67;45.00
80289;PMS7003;69592;44.804;-0.550;2024-01-15T02:26:19;88.67;70.00;44.67
80289;PMS7003;69592;44.804;-0.550;2024-01-15T02:28:45;85.67;69.33;45.67
80289;PMS7003;69592;44.804;-0.550;2024-01-15T02:31:11;83.00;68.00;41.33
80289;PMS7003;69592;44.804;-0.550;2024-01-15T02:33:36;88.67;70.67;45.33
80289;PMS7003;69592;44.804;-0.550;2024-01-15T02:36:01;88.00;69.33;45.33
80289;PMS7003;69592;44.804;-0.550;2024-01-15T02:38:27;82.00;65.33;42.33
80289;PMS7003;69592;44.804;-0.550;2024-01-15T02:40:52;83.33;68.33;43.67
80289;PMS7003;69592;44.804;-0.550;2024-01-15T02:43:18;84.00;68.00;45.00
80289;PMS7003;69592;44.804;-0.550;2024-01-15T02:45:44;84.33;66.33;41.33
80289;PMS7003;69592;44.804;-0.550;2024-01-15T02:48:10;82.00;66.67;43.67
80289;PMS7003;69592;44.804;-0.550;2024-01-15T02:50:35;80.67;66.00;43.00
80289;PMS7003;69592;44.804;-0.550;2024-01-15T02:53:00;83.67;66.67;42.00
80289;PMS7003;69592;44.804;-0.550;2024-01-15T02:55:26;77.67;62.00;41.67
80289;PMS7003;69592;44.804;-0.550;2024-01-15T02:57:54;76.00;61.33;40.33
80289;PMS7003;69592;44.804;-0.550;2024-01-15T03:00:19;74.33;60.67;40.00
80289;PMS7003;69592;44.804;-0.550;2024-01-15T03:02:45;85.67;67.67;42.67
80289;PMS7003;69592;44.804;-0.550;2024-01-15T03:05:11;79.33;63.67;37.00
80289;PMS7003;69592;44.804;-0.550;2024-01-15T03:07:36;73.67;60.33;37.33
80289;PMS7003;69592;44.804;-0.550;2024-01-15T03:10:02;79.00;63.33;40.33
80289;PMS7003;69592;44.804;-0.550;2024-01-15T03:12:27;70.67;60.00;39.67
80289;PMS7003;69592;44.804;-0.550;2024-01-15T03:14:53;77.00;59.67;41.33
80289;PMS7003;69592;44.804;-0.550;2024-01-15T03:17:18;72.00;58.33;37.00
80289;PMS7003;69592;44.804;-0.550;2024-01-15T03:19:44;78.67;63.67;40.67
80289;PMS7003;69592;44.804;-0.550;2024-01-15T03:22:09;75.67;60.67;40.00
80289;PMS7003;69592;44.804;-0.550;2024-01-15T03:24:35;70.33;59.67;38.33
80289;PMS7003;69592;44.804;-0.550;2024-01-15T03:27:00;79.67;64.00;41.33
80289;PMS7003;69592;44.804;-0.550;2024-01-15T03:29:26;81.00;64.00;40.33
80289;PMS7003;69592;44.804;-0.550;2024-01-15T03:31:52;72.33;60.33;40.67
80289;PMS7003;69592;44.804;-0.550;2024-01-15T03:34:17;77.00;62.67;41.33
80289;PMS7003;69592;44.804;-0.550;2024-01-15T03:36:42;73.67;61.00;40.00
80289;PMS7003;69592;44.804;-0.550;2024-01-15T03:39:08;69.00;53.33;29.33
80289;PMS7003;69592;44.804;-0.550;2024-01-15T03:41:33;72.33;58.67;37.67
80289;PMS7003;69592;44.804;-0.550;2024-01-15T03:43:58;68.67;57.00;34.67
80289;PMS7003;69592;44.804;-0.550;2024-01-15T03:46:24;74.33;59.33;37.67
80289;PMS7003;69592;44.804;-0.550;2024-01-15T03:48:49;66.67;54.00;39.00
80289;PMS7003;69592;44.804;-0.550;2024-01-15T03:51:16;74.00;61.33;38.33
80289;PMS7003;69592;44.804;-0.550;2024-01-15T03:53:42;73.67;58.00;37.67
80289;PMS7003;69592;44.804;-0.550;2024-01-15T03:56:08;75.00;58.67;39.00
80289;PMS7003;69592;44.804;-0.550;2024-01-15T03:58:33;71.33;57.00;39.67
80289;PMS7003;69592;44.804;-0.550;2024-01-15T04:00:58;70.67;58.67;38.67
80289;PMS7003;69592;44.804;-0.550;2024-01-15T04:03:24;68.33;55.67;37.67
80289;PMS7003;69592;44.804;-0.550;2024-01-15T04:05:49;70.33;56.00;37.67
80289;PMS7003;69592;44.804;-0.550;2024-01-15T04:08:14;64.67;53.67;37.67
80289;PMS7003;69592;44.804;-0.550;2024-01-15T04:10:40;61.00;52.67;34.33
80289;PMS7003;69592;44.804;-0.550;2024-01-15T04:13:05;73.67;60.00;39.33
80289;PMS7003;69592;44.804;-0.550;2024-01-15T04:15:31;72.33;60.00;38.67
80289;PMS7003;69592;44.804;-0.550;2024-01-15T04:17:56;70.00;57.00;37.33
80289;PMS7003;69592;44.804;-0.550;2024-01-15T04:20:21;62.33;55.00;40.00
80289;PMS7003;69592;44.804;-0.550;2024-01-15T04:22:47;70.67;57.00;37.67
80289;PMS7003;69592;44.804;-0.550;2024-01-15T04:25:12;68.33;56.00;37.00
80289;PMS7003;69592;44.804;-0.550;2024-01-15T04:27:38;71.67;56.67;36.33
80289;PMS7003;69592;44.804;-0.550;2024-01-15T04:30:03;75.33;60.00;40.00
80289;PMS7003;69592;44.804;-0.550;2024-01-15T04:32:30;67.33;54.67;35.00
80289;PMS7003;69592;44.804;-0.550;2024-01-15T04:34:55;76.00;60.67;40.00
80289;PMS7003;69592;44.804;-0.550;2024-01-15T04:37:20;65.00;55.00;34.67
80289;PMS7003;69592;44.804;-0.550;2024-01-15T04:39:46;68.00;58.00;38.00
80289;PMS7003;69592;44.804;-0.550;2024-01-15T04:42:11;74.00;62.33;41.00
80289;PMS7003;69592;44.804;-0.550;2024-01-15T04:44:36;75.00;57.33;39.00
80289;PMS7003;69592;44.804;-0.550;2024-01-15T04:47:02;71.33;59.00;40.33
80289;PMS7003;69592;44.804;-0.550;2024-01-15T04:49:27;79.67;64.33;40.00
80289;PMS7003;69592;44.804;-0.550;2024-01-15T04:51:54;77.00;65.67;42.67
80289;PMS7003;69592;44.804;-0.550;2024-01-15T04:54:19;113.75;103.50;60.75
80289;PMS7003;69592;44.804;-0.550;2024-01-15T04:56:45;136.25;123.25;70.50
80289;PMS7003;69592;44.804;-0.550;2024-01-15T04:59:11;97.33;74.67;48.00
80289;PMS7003;69592;44.804;-0.550;2024-01-15T05:01:37;74.33;60.00;40.00
80289;PMS7003;69592;44.804;-0.550;2024-01-15T05:04:03;71.00;60.00;40.67
80289;PMS7003;69592;44.804;-0.550;2024-01-15T05:06:28;78.33;60.67;38.33
80289;PMS7003;69592;44.804;-0.550;2024-01-15T05:08:53;68.75;57.75;37.50
80289;PMS7003;69592;44.804;-0.550;2024-01-15T05:11:19;60.00;49.25;31.50
80289;PMS7003;69592;44.804;-0.550;2024-01-15T05:13:45;82.67;65.67;41.33
80289;PMS7003;69592;44.804;-0.550;2024-01-15T05:16:11;86.67;71.33;45.33
80289;PMS7003;69592;44.804;-0.550;2024-01-15T05:18:36;75.67;62.33;39.33
80289;PMS7003;69592;44.804;-0.550;2024-01-15T05:21:04;74.33;59.33;38.67
80289;PMS7003;69592;44.804;-0.550;2024-01-15T05:23:33;74.00;56.25;35.75
80289;PMS7003;69592;44.804;-0.550;2024-01-15T05:25:59;71.25;55.75;37.00
80289;PMS7003;69592;44.804;-0.550;2024-01-15T05:28:25;67.50;56.00;35.25
80289;PMS7003;69592;44.804;-0.550;2024-01-15T05:30:50;70.75;56.50;37.75
80289;PMS7003;69592;44.804;-0.550;2024-01-15T05:33:16;64.50;55.25;35.50
80289;PMS7003;69592;44.804;-0.550;2024-01-15T05:35:42;67.75;56.50;37.75
80289;PMS7003;69592;44.804;-0.550;2024-01-15T05:38:07;75.00;60.00;40.00
80289;PMS7003;69592;44.804;-0.550;2024-01-15T05:40:33;68.00;55.33;37.00
80289;PMS7003;69592;44.804;-0.550;2024-01-15T05:42:58;69.50;53.75;36.00
80289;PMS7003;69592;44.804;-0.550;2024-01-15T05:45:23;68.00;55.50;35.50
80289;PMS7003;69592;44.804;-0.550;2024-01-15T05:47:50;60.50;52.75;34.75
80289;PMS7003;69592;44.804;-0.550;2024-01-15T05:50:16;67.25;54.75;34.75
80289;PMS7003;69592;44.804;-0.550;2024-01-15T05:52:41;52.00;44.25;29.25
80289;PMS7003;69592;44.804;-0.550;2024-01-15T05:55:07;61.75;51.50;32.25
80289;PMS7003;69592;44.804;-0.550;2024-01-15T05:57:32;60.00;48.25;33.00
80289;PMS7003;69592;44.804;-0.550;2024-01-15T05:59:58;48.75;44.00;32.00
80289;PMS7003;69592;44.804;-0.550;2024-01-15T06:02:23;61.00;52.00;34.00
80289;PMS7003;69592;44.804;-0.550;2024-01-15T06:04:48;59.00;51.50;34.50
80289;PMS7003;69592;44.804;-0.550;2024-01-15T06:07:14;57.25;49.00;33.25
80289;PMS7003;69592;44.804;-0.550;2024-01-15T06:09:39;72.00;56.75;35.00
80289;PMS7003;69592;44.804;-0.550;2024-01-15T06:12:07;57.50;49.25;34.00
80289;PMS7003;69592;44.804;-0.550;2024-01-15T06:14:33;67.25;53.75;35.00
80289;PMS7003;69592;44.804;-0.550;2024-01-15T06:16:58;57.25;47.50;33.75
80289;PMS7003;69592;44.804;-0.550;2024-01-15T06:19:23;65.75;52.75;35.25
80289;PMS7003;69592;44.804;-0.550;2024-01-15T06:21:49;66.50;54.25;35.00
80289;PMS7003;69592;44.804;-0.550;2024-01-15T06:24:14;57.50;48.75;32.00
80289;PMS7003;69592;44.804;-0.550;2024-01-15T06:26:40;55.75;49.50;33.00
80289;PMS7003;69592;44.804;-0.550;2024-01-15T06:29:06;59.25;48.75;32.75
80289;PMS7003;69592;44.804;-0.550;2024-01-15T06:31:31;49.00;46.50;31.75
80289;PMS7003;69592;44.804;-0.550;2024-01-15T06:33:56;47.50;43.75;27.00
80289;PMS7003;69592;44.804;-0.550;2024-01-15T06:36:23;55.50;50.25;34.00
80289;PMS7003;69592;44.804;-0.550;2024-01-15T06:38:48;63.75;50.25;33.50
80289;PMS7003;69592;44.804;-0.550;2024-01-15T06:41:13;67.50;51.50;33.25
80289;PMS7003;69592;44.804;-0.550;2024-01-15T06:43:39;52.50;47.50;32.50
80289;PMS7003;69592;44.804;-0.550;2024-01-15T06:46:05;55.50;47.75;33.00
80289;PMS7003;69592;44.804;-0.550;2024-01-15T06:48:30;57.25;48.25;33.00
80289;PMS7003;69592;44.804;-0.550;2024-01-15T06:50:55;65.75;50.50;34.00
80289;PMS7003;69592;44.804;-0.550;2024-01-15T06:53:21;50.00;45.25;29.75
80289;PMS7003;69592;44.804;-0.550;2024-01-15T06:55:46;62.00;50.50;32.75
80289;PMS7003;69592;44.804;-0.550;2024-01-15T06:58:12;52.75;44.00;31.25
80289;PMS7003;69592;44.804;-0.550;2024-01-15T07:00:37;59.00;48.00;32.00
80289;PMS7003;69592;44.804;-0.550;2024-01-15T07:03:03;54.25;47.25;30.25
80289;PMS7003;69592;44.804;-0.550;2024-01-15T07:05:28;57.00;50.75;32.25
80289;PMS7003;69592;44.804;-0.550;2024-01-15T07:07:55;60.00;48.25;31.75
80289;PMS7003;69592;44.804;-0.550;2024-01-15T07:10:21;58.00;47.25;31.75
80289;PMS7003;69592;44.804;-0.550;2024-01-15T07:12:46;57.00;48.50;32.50
80289;PMS7003;69592;44.804;-0.550;2024-01-15T07:15:11;59.25;47.50;30.75
80289;PMS7003;69592;44.804;-0.550;2024-01-15T07:17:37;61.00;47.75;32.00
80289;PMS7003;69592;44.804;-0.550;2024-01-15T07:20:08;51.25;46.75;31.50
80289;PMS7003;69592;44.804;-0.550;2024-01-15T07:22:38;51.25;46.25;32.00
80289;PMS7003;69592;44.804;-0.550;2024-01-15T07:25:03;58.00;46.75;32.00
80289;PMS7003;69592;44.804;-0.550;2024-01-15T07:27:32;59.25;49.75;29.50
80289;PMS7003;69592;44.804;-0.550;2024-01-15T07:29:58;54.00;46.00;31.50
80289;PMS7003;69592;44.804;-0.550;2024-01-15T07:32:23;46.00;43.00;29.00
80289;PMS7003;69592;44.804;-0.550;2024-01-15T07:34:49;58.75;48.00;32.75
80289;PMS7003;69592;44.804;-0.550;2024-01-15T07:37:14;60.25;49.25;32.75
80289;PMS7003;69592;44.804;-0.550;2024-01-15T07:39:40;58.00;48.00;32.25
80289;PMS7003;69592;44.804;-0.550;2024-01-15T07:42:05;51.75;46.50;30.25
80289;PMS7003;69592;44.804;-0.550;2024-01-15T07:44:31;58.50;50.25;33.00
80289;PMS7003;69592;44.804;-0.550;2024-01-15T07:46:56;59.50;48.25;32.50
80289;PMS7003;69592;44.804;-0.550;2024-01-15T07:49:22;44.25;42.25;26.00
80289;PMS7003;69592;44.804;-0.550;2024-01-15T07:51:48;49.75;46.00;29.75
80289;PMS7003;69592;44.804;-0.550;2024-01-15T07:54:14;54.75;46.25;30.50
80289;PMS7003;69592;44.804;-0.550;2024-01-15T07:56:59;58.75;51.75;35.00
80289;PMS7003;69592;44.804;-0.550;2024-01-15T07:59:26;60.00;51.50;34.50
80289;PMS7003;69592;44.804;-0.550;2024-01-15T08:01:52;59.00;48.00;33.50
80289;PMS7003;69592;44.804;-0.550;2024-01-15T08:04:18;54.00;47.75;32.25
80289;PMS7003;69592;44.804;-0.550;2024-01-15T08:06:44;49.00;46.75;31.50
80289;PMS7003;69592;44.804;-0.550;2024-01-15T08:09:10;54.00;46.00;31.25
80289;PMS7003;69592;44.804;-0.550;2024-01-15T08:11:35;62.75;52.00;31.50
80289;PMS7003;69592;44.804;-0.550;2024-01-15T08:14:01;62.25;50.25;31.75
80289;PMS7003;69592;44.804;-0.550;2024-01-15T08:16:26;60.25;50.00;32.75
80289;PMS7003;69592;44.804;-0.550;2024-01-15T08:18:52;64.00;49.25;32.75
80289;PMS7003;69592;44.804;-0.550;2024-01-15T08:21:18;60.25;49.75;32.50
80289;PMS7003;69592;44.804;-0.550;2024-01-15T08:23:44;57.75;47.25;32.00
80289;PMS7003;69592;44.804;-0.550;2024-01-15T08:26:10;59.00;49.00;32.00
80289;PMS7003;69592;44.804;-0.550;2024-01-15T08:28:37;56.25;46.75;31.00
80289;PMS7003;69592;44.804;-0.550;2024-01-15T08:31:03;58.25;48.25;32.00
80289;PMS7003;69592;44.804;-0.550;2024-01-15T08:33:28;65.75;53.00;33.25
80289;PMS7003;69592;44.804;-0.550;2024-01-15T08:35:54;56.50;49.25;32.50
80289;PMS7003;69592;44.804;-0.550;2024-01-15T08:38:20;52.25;44.50;30.50
80289;PMS7003;69592;44.804;-0.550;2024-01-15T08:40:46;57.50;49.50;31.25
80289;PMS7003;69592;44.804;-0.550;2024-01-15T08:43:12;54.00;46.25;27.50
80289;PMS7003;69592;44.804;-0.550;2024-01-15T08:45:38;62.00;46.75;29.00
80289;PMS7003;69592;44.804;-0.550;2024-01-15T08:48:03;56.00;46.75;29.50
80289;PMS7003;69592;44.804;-0.550;2024-01-15T08:50:29;50.00;43.50;27.75
80289;PMS7003;69592;44.804;-0.550;2024-01-15T08:52:54;25.75;20.00;3.00
80289;PMS7003;69592;44.804;-0.550;2024-01-15T08:55:20;50.75;45.50;29.50
80289;PMS7003;69592;44.804;-0.550;2024-01-15T08:57:47;63.50;49.50;31.00
80289;PMS7003;69592;44.804;-0.550;2024-01-15T09:00:13;55.50;47.00;30.25
80289;PMS7003;69592;44.804;-0.550;2024-01-15T09:02:39;44.50;40.25;27.75
80289;PMS7003;69592;44.804;-0.550;2024-01-15T09:05:04;44.50;39.25;21.25
80289;PMS7003;69592;44.804;-0.550;2024-01-15T09:07:30;58.75;47.75;29.50
80289;PMS7003;69592;44.804;-0.550;2024-01-15T09:09:55;49.00;44.00;29.00
80289;PMS7003;69592;44.804;-0.550;2024-01-15T09:12:21;52.00;47.25;30.25
80289;PMS7003;69592;44.804;-0.550;2024-01-15T09:14:47;54.75;48.75;32.25
80289;PMS7003;69592;44.804;-0.550;2024-01-15T09:17:12;69.75;53.25;32.50
80289;PMS7003;69592;44.804;-0.550;2024-01-15T09:19:38;61.00;50.25;32.75
80289;PMS7003;69592;44.804;-0.550;2024-01-15T09:22:06;57.25;49.00;33.00
80289;PMS7003;69592;44.804;-0.550;2024-01-15T09:24:32;59.50;47.50;33.00
80289;PMS7003;69592;44.804;-0.550;2024-01-15T09:26:57;55.75;49.25;30.25
80289;PMS7003;69592;44.804;-0.550;2024-01-15T09:29:23;60.00;51.00;33.00
80289;PMS7003;69592;44.804;-0.550;2024-01-15T09:31:48;53.50;48.25;30.75
80289;PMS7003;69592;44.804;-0.550;2024-01-15T09:34:15;57.75;49.25;32.00
80289;PMS7003;69592;44.804;-0.550;2024-01-15T09:36:41;59.75;47.50;29.75
80289;PMS7003;69592;44.804;-0.550;2024-01-15T09:39:07;56.25;46.00;29.25
80289;PMS7003;69592;44.804;-0.550;2024-01-15T09:41:37;54.25;48.75;31.00
80289;PMS7003;69592;44.804;-0.550;2024-01-15T09:44:05;61.75;48.50;31.25
80289;PMS7003;69592;44.804;-0.550;2024-01-15T09:46:34;61.50;49.00;30.75
80289;PMS7003;69592;44.804;-0.550;2024-01-15T09:49:00;61.75;51.75;34.25
80289;PMS7003;69592;44.804;-0.550;2024-01-15T09:51:27;63.50;53.50;33.25
80289;PMS7003;69592;44.804;-0.550;2024-01-15T09:53:56;65.25;51.00;33.00
80289;PMS7003;69592;44.804;-0.550;2024-01-15T09:56:22;59.00;50.25;33.75
80289;PMS7003;69592;44.804;-0.550;2024-01-15T09:58:48;63.75;55.00;32.25
80289;PMS7003;69592;44.804;-0.550;2024-01-15T10:01:14;69.50;55.75;36.00
80289;PMS7003;69592;44.804;-0.550;2024-01-15T10:03:41;62.75;50.50;32.25
80289;PMS7003;69592;44.804;-0.550;2024-01-15T10:06:07;53.50;46.25;31.00
80289;PMS7003;69592;44.804;-0.550;2024-01-15T10:08:34;57.75;46.50;31.75
80289;PMS7003;69592;44.804;-0.550;2024-01-15T10:11:01;52.75;45.50;31.00
80289;PMS7003;69592;44.804;-0.550;2024-01-15T10:13:29;58.75;47.75;31.00
80289;PMS7003;69592;44.804;-0.550;2024-01-15T10:15:55;54.50;47.00;30.00
80289;PMS7003;69592;44.804;-0.550;2024-01-15T10:18:21;66.00;51.00;31.75
80289;PMS7003;69592;44.804;-0.550;2024-01-15T10:20:46;62.50;48.25;31.50
80289;PMS7003;69592;44.804;-0.550;2024-01-15T10:23:12;48.75;39.00;24.50
80289;PMS7003;69592;44.804;-0.550;2024-01-15T10:25:40;60.75;50.50;31.50
80289;PMS7003;69592;44.804;-0.550;2024-01-15T10:28:07;56.75;50.00;31.75
80289;PMS7003;69592;44.804;-0.550;2024-01-15T10:30:33;69.25;55.75;34.25
80289;PMS7003;69592;44.804;-0.550;2024-01-15T10:33:02;50.00;45.00;30.75
80289;PMS7003;69592;44.804;-0.550;2024-01-15T10:35:35;55.75;49.25;33.25
80289;PMS7003;69592;44.804;-0.550;2024-01-15T10:38:01;66.50;54.25;34.00
80289;PMS7003;69592;44.804;-0.550;2024-01-15T10:40:27;59.25;50.00;32.25
80289;PMS7003;69592;44.804;-0.550;2024-01-15T10:42:54;66.00;50.75;31.00
80289;PMS7003;69592;44.804;-0.550;2024-01-15T10:45:19;63.25;52.25;32.75
80289;PMS7003;69592;44.804;-0.550;2024-01-15T10:47:45;62.75;50.00;32.00
80289;PMS7003;69592;44.804;-0.550;2024-01-15T10:50:11;59.75;50.25;32.25
80289;PMS7003;69592;44.804;-0.550;2024-01-15T10:52:37;63.00;50.25;32.00
80289;PMS7003;69592;44.804;-0.550;2024-01-15T10:55:05;65.50;53.75;32.25
80289;PMS7003;69592;44.804;-0.550;2024-01-15T10:57:33;56.00;47.50;31.25
80289;PMS7003;69592;44.804;-0.550;2024-01-15T11:00:00;60.00;49.50;30.75
80289;PMS7003;69592;44.804;-0.550;2024-01-15T11:02:29;61.50;50.75;33.00
80289;PMS7003;69592;44.804;-0.550;2024-01-15T11:04:55;60.75;50.50;30.75
80289;PMS7003;69592;44.804;-0.550;2024-01-15T11:07:21;55.75;46.75;30.75
80289;PMS7003;69592;44.804;-0.550;2024-01-15T11:09:48;56.00;48.75;30.25
80289;PMS7003;69592;44.804;-0.550;2024-01-15T11:12:15;59.75;49.00;31.00
80289;PMS7003;69592;44.804;-0.550;2024-01-15T11:14:45;57.75;48.25;32.00
80289;PMS7003;69592;44.804;-0.550;2024-01-15T11:17:12;64.75;50.75;32.00
80289;PMS7003;69592;44.804;-0.550;2024-01-15T11:22:08;57.50;47.50;30.75
80289;PMS7003;69592;44.804;-0.550;2024-01-15T11:24:53;63.75;47.75;31.50
80289;PMS7003;69592;44.804;-0.550;2024-01-15T11:27:19;65.50;50.50;32.75
80289;PMS7003;69592;44.804;-0.550;2024-01-15T11:30:07;65.25;52.75;32.50
80289;PMS7003;69592;44.804;-0.550;2024-01-15T11:32:36;55.50;47.00;30.00
80289;PMS7003;69592;44.804;-0.550;2024-01-15T11:35:02;62.75;51.00;29.25
80289;PMS7003;69592;44.804;-0.550;2024-01-15T11:37:29;58.25;48.25;30.00
80289;PMS7003;69592;44.804;-0.550;2024-01-15T11:40:15;65.00;54.25;33.75
80289;PMS7003;69592;44.804;-0.550;2024-01-15T11:42:44;63.00;49.75;32.00
80289;PMS7003;69592;44.804;-0.550;2024-01-15T11:45:10;59.50;48.00;31.25
80289;PMS7003;69592;44.804;-0.550;2024-01-15T11:50:44;62.25;51.00;31.00
80289;PMS7003;69592;44.804;-0.550;2024-01-15T11:53:15;55.25;48.00;33.00
80289;PMS7003;69592;44.804;-0.550;2024-01-15T11:55:57;51.25;41.25;26.00
80289;PMS7003;69592;44.804;-0.550;2024-01-15T11:58:24;58.25;47.50;31.25
80289;PMS7003;69592;44.804;-0.550;2024-01-15T12:00:50;62.25;52.00;33.00
80289;PMS7003;69592;44.804;-0.550;2024-01-15T12:03:17;56.50;48.50;32.50
80289;PMS7003;69592;44.804;-0.550;2024-01-15T12:05:48;65.50;52.25;33.75
80289;PMS7003;69592;44.804;-0.550;2024-01-15T12:08:14;64.25;52.50;32.50
80289;PMS7003;69592;44.804;-0.550;2024-01-15T12:10:40;64.00;50.75;32.25
80289;PMS7003;69592;44.804;-0.550;2024-01-15T12:13:12;63.75;52.50;33.25
80289;PMS7003;69592;44.804;-0.550;2024-01-15T12:15:40;62.50;49.00;32.75
80289;PMS7003;69592;44.804;-0.550;2024-01-15T12:18:06;61.50;50.50;34.00
80289;PMS7003;69592;44.804;-0.550;2024-01-15T12:20:33;68.00;54.75;34.25
80289;PMS7003;69592;44.804;-0.550;2024-01-15T12:22:59;70.00;55.25;35.00
80289;PMS7003;69592;44.804;-0.550;2024-01-15T12:25:25;64.75;52.00;32.00
80289;PMS7003;69592;44.804;-0.550;2024-01-15T12:27:54;59.75;49.00;31.25
80289;PMS7003;69592;44.804;-0.550;2024-01-15T12:30:21;65.50;52.50;33.75
80289;PMS7003;69592;44.804;-0.550;2024-01-15T12:32:46;68.25;51.75;32.50
80289;PMS7003;69592;44.804;-0.550;2024-01-15T12:35:12;61.25;49.50;33.75
80289;PMS7003;69592;44.804;-0.550;2024-01-15T12:37:41;64.00;50.75;32.00
80289;PMS7003;69592;44.804;-0.550;2024-01-15T12:40:08;66.75;53.00;33.25
80289;PMS7003;69592;44.804;-0.550;2024-01-15T12:42:44;65.00;52.75;33.75
80289;PMS7003;69592;44.804;-0.550;2024-01-15T12:45:09;65.00;53.25;35.25
80289;PMS7003;69592;44.804;-0.550;2024-01-15T12:47:36;73.75;57.75;35.75
80289;PMS7003;69592;44.804;-0.550;2024-01-15T12:50:02;73.00;56.00;34.50
80289;PMS7003;69592;44.804;-0.550;2024-01-15T12:52:32;63.25;52.25;33.00
80289;PMS7003;69592;44.804;-0.550;2024-01-15T12:54:57;64.25;47.25;30.25
80289;PMS7003;69592;44.804;-0.550;2024-01-15T12:57:23;61.25;50.25;31.75
80289;PMS7003;69592;44.804;-0.550;2024-01-15T12:59:48;61.75;51.50;32.50
80289;PMS7003;69592;44.804;-0.550;2024-01-15T13:02:15;59.25;47.50;31.00
80289;PMS7003;69592;44.804;-0.550;2024-01-15T13:04:41;58.25;48.25;31.75
80289;PMS7003;69592;44.804;-0.550;2024-01-15T13:07:07;69.25;53.75;35.25
80289;PMS7003;69592;44.804;-0.550;2024-01-15T13:09:33;75.75;61.00;38.00
80289;PMS7003;69592;44.804;-0.550;2024-01-15T13:12:00;74.00;60.75;37.75
80289;PMS7003;69592;44.804;-0.550;2024-01-15T13:14:27;74.25;58.75;39.00
80289;PMS7003;69592;44.804;-0.550;2024-01-15T13:16:53;70.50;54.75;36.25
80289;PMS7003;69592;44.804;-0.550;2024-01-15T13:19:19;82.00;63.75;40.75
80289;PMS7003;69592;44.804;-0.550;2024-01-15T13:21:44;83.25;67.25;43.00
80289;PMS7003;69592;44.804;-0.550;2024-01-15T13:24:10;86.50;67.00;42.25
80289;PMS7003;69592;44.804;-0.550;2024-01-15T13:26:36;78.25;61.50;39.25
80289;PMS7003;69592;44.804;-0.550;2024-01-15T13:29:05;77.00;59.00;37.25
80289;PMS7003;69592;44.804;-0.550;2024-01-15T13:31:30;75.00;60.75;37.75
80289;PMS7003;69592;44.804;-0.550;2024-01-15T13:33:57;79.00;60.00;37.00